createdAt,value
2022-11-27T08:14:09.469Z,101574.44
2022-11-27T08:17:13.847Z,101573.38
2022-11-27T08:20:16.567Z,101572.19
2022-11-27T08:23:20.291Z,101570.22
2022-11-27T08:26:22.834Z,101560.34
2022-11-27T08:29:32.586Z,101556.47
2022-11-27T08:32:39.983Z,101558.28
2022-11-27T08:35:49.053Z,101556.28
2022-11-27T08:38:51.617Z,101554.47
2022-11-27T08:41:54.196Z,101550.72
2022-11-27T08:44:58.009Z,101561.28
2022-11-27T08:48:00.595Z,101557.88
2022-11-27T09:01:08.091Z,101572.00
2022-11-27T09:04:10.638Z,101571.56
2022-11-27T09:07:16.751Z,101566.06
2022-11-27T09:10:19.402Z,101561.19
2022-11-27T09:13:21.921Z,101578.34
2022-11-27T09:16:25.761Z,101578.00
2022-11-27T09:19:28.528Z,101582.50
2022-11-27T09:22:31.008Z,101594.13
2022-11-27T09:25:33.471Z,101610.06
2022-11-27T09:28:36.676Z,101616.97
2022-11-27T09:31:40.599Z,101629.25
2022-11-27T09:34:43.538Z,101634.97
2022-11-27T09:37:46.160Z,101642.13
2022-11-27T09:40:50.659Z,101642.03
2022-11-27T09:43:56.837Z,101656.66
2022-11-27T09:47:08.167Z,101661.94
2022-11-27T09:50:15.798Z,101660.91
2022-11-27T09:53:29.041Z,101663.09
2022-11-27T09:56:35.833Z,101662.94
2022-11-27T09:59:44.380Z,101662.03
2022-11-27T10:02:48.858Z,101669.59
2022-11-27T10:06:03.977Z,101662.41
2022-11-27T10:09:17.037Z,101659.75
2022-11-27T10:12:30.132Z,101667.56
2022-11-27T10:15:41.911Z,101665.19
2022-11-27T10:18:49.243Z,101657.94
2022-11-27T10:21:57.750Z,101653.91
2022-11-27T10:25:09.261Z,101653.94
2022-11-27T10:28:23.539Z,101654.03
2022-11-27T10:31:35.022Z,101661.53
2022-11-27T10:34:42.757Z,101656.13
2022-11-27T10:37:49.841Z,101660.03
2022-11-27T10:41:02.620Z,101655.97
2022-11-27T10:44:24.135Z,101650.69
2022-11-27T10:47:33.479Z,101646.78
2022-11-27T10:50:37.845Z,101644.00
2022-11-27T10:53:44.023Z,101639.03
2022-11-27T10:57:14.256Z,101641.09
2022-11-27T11:00:21.454Z,101639.31
2022-11-27T11:03:23.936Z,101630.06
2022-11-27T11:06:28.097Z,101641.16
2022-11-27T11:09:33.357Z,101636.00
2022-11-27T11:12:36.719Z,101626.56
2022-11-27T11:15:51.652Z,101624.72
2022-11-27T11:18:55.908Z,101620.69
2022-11-27T11:22:01.638Z,101608.13
2022-11-27T11:25:04.358Z,101602.88
2022-11-27T11:28:06.911Z,101600.72
2022-11-27T11:31:13.842Z,101607.28
2022-11-27T11:34:22.710Z,101611.66
2022-11-27T11:37:29.749Z,101617.75
2022-11-27T11:40:35.463Z,101617.66
2022-11-27T11:43:38.809Z,101608.63
2022-11-27T11:46:41.324Z,101614.75
2022-11-27T11:49:43.812Z,101610.44
2022-11-27T11:53:00.218Z,101606.84
2022-11-27T11:56:13.952Z,101607.41
2022-11-27T11:59:27.099Z,101603.28
2022-11-27T12:02:42.825Z,101607.09
2022-11-27T12:06:01.944Z,101603.16
2022-11-27T12:09:18.965Z,101596.91
2022-11-27T12:12:33.067Z,101607.22
2022-11-27T12:15:40.331Z,101592.69
2022-11-27T12:18:54.463Z,101591.88
2022-11-27T12:22:07.252Z,101594.75
2022-11-27T12:25:27.380Z,101576.63
2022-11-27T12:28:45.816Z,101565.78
2022-11-27T12:32:06.226Z,101554.97
2022-11-27T12:35:28.223Z,101547.03
2022-11-27T12:38:42.773Z,101550.53
2022-11-27T12:41:58.116Z,101540.69
2022-11-27T12:45:04.885Z,101543.88
2022-11-27T12:48:16.613Z,101540.56
2022-11-27T12:51:24.326Z,101540.44
2022-11-27T12:54:31.970Z,101533.41
2022-11-27T12:57:40.635Z,101525.50
2022-11-27T13:00:44.640Z,101526.28
2022-11-27T13:04:11.180Z,101520.88
2022-11-27T13:07:19.950Z,101516.25
2022-11-27T13:10:27.949Z,101524.13
2022-11-27T13:13:38.400Z,101511.78
2022-11-27T13:16:46.430Z,101512.81
2022-11-27T13:19:50.570Z,101511.91
2022-11-27T13:22:53.386Z,101507.31
2022-11-27T13:25:57.668Z,101502.09
2022-11-27T13:29:05.368Z,101500.38
2022-11-27T13:32:09.774Z,101483.81
2022-11-27T13:35:21.653Z,101478.94
2022-11-27T13:38:27.173Z,101480.88
2022-11-27T13:41:34.676Z,101475.13
2022-11-27T13:44:43.457Z,101479.66
2022-11-27T13:47:47.975Z,101486.88
2022-11-27T13:50:50.735Z,101492.69
2022-11-27T13:53:53.304Z,101484.94
2022-11-27T13:56:55.783Z,101482.59
2022-11-27T14:00:02.358Z,101475.91
2022-11-27T14:03:05.804Z,101471.72
2022-11-27T14:06:18.454Z,101472.25
2022-11-27T14:09:20.990Z,101470.97
2022-11-27T14:12:26.453Z,101466.56
2022-11-27T14:15:31.768Z,101455.44
2022-11-27T14:18:34.458Z,101448.88
2022-11-27T14:21:42.728Z,101452.72
2022-11-27T14:24:46.610Z,101445.97
2022-11-27T14:27:50.799Z,101441.16
2022-11-27T14:30:56.915Z,101444.13
2022-11-27T14:34:23.196Z,101449.34
2022-11-27T14:37:26.685Z,101452.19
2022-11-27T14:40:29.396Z,101446.38
2022-11-27T14:43:31.890Z,101451.88
2022-11-27T14:46:38.163Z,101450.13
2022-11-27T14:49:42.325Z,101454.59
2022-11-27T14:52:47.656Z,101457.25
2022-11-27T14:55:52.124Z,101456.56
2022-11-27T14:58:55.919Z,101461.25
2022-11-27T15:02:02.999Z,101462.41
2022-11-27T15:05:07.011Z,101454.78
2022-11-27T15:08:11.367Z,101460.09
2022-11-27T15:11:35.873Z,101450.59
2022-11-27T15:14:39.004Z,101445.41
2022-11-27T15:17:46.402Z,101445.34
2022-11-27T15:20:49.084Z,101441.78
2022-11-27T15:23:52.725Z,101432.13
2022-11-27T15:26:55.218Z,101420.78
2022-11-27T15:30:14.493Z,101419.81
2022-11-27T15:33:28.064Z,101419.75
2022-11-27T15:36:39.610Z,101408.50
2022-11-27T15:39:49.489Z,101412.91
2022-11-27T15:42:51.969Z,101411.16
2022-11-27T15:45:54.537Z,101405.88
2022-11-27T15:48:58.661Z,101408.41
2022-11-27T15:52:01.293Z,101397.94
2022-11-27T15:55:03.775Z,101405.91
2022-11-27T15:58:06.256Z,101401.53
2022-11-27T16:01:08.791Z,101397.09
2022-11-27T16:04:12.651Z,101387.44
2022-11-27T16:07:15.198Z,101390.91
2022-11-27T16:10:17.855Z,101388.34
2022-11-27T16:13:20.625Z,101388.34
2022-11-27T16:16:23.610Z,101387.59
2022-11-27T16:19:27.634Z,101384.94
2022-11-27T16:22:30.098Z,101388.56
2022-11-27T16:25:32.644Z,101386.94
2022-11-27T16:28:35.544Z,101380.84
2022-11-27T16:31:38.197Z,101371.34
2022-11-27T16:34:42.550Z,101367.94
2022-11-27T16:37:45.186Z,101368.94
2022-11-27T16:40:48.049Z,101363.72
2022-11-27T16:43:52.752Z,101355.06
2022-11-27T16:46:55.337Z,101349.78
2022-11-27T16:49:59.176Z,101351.59
2022-11-27T16:53:01.675Z,101335.97
2022-11-27T16:56:04.320Z,101332.47
2022-11-27T16:59:09.712Z,101335.88
2022-11-27T17:02:12.323Z,101336.78
2022-11-27T17:05:16.311Z,101340.22
2022-11-27T17:08:18.948Z,101338.47
2022-11-27T17:11:24.743Z,101328.66
2022-11-27T17:14:27.641Z,101329.53
2022-11-27T17:17:32.227Z,101327.72
2022-11-27T17:20:38.220Z,101321.59
2022-11-27T17:23:43.099Z,101314.47
2022-11-27T17:26:47.441Z,101306.53
2022-11-27T17:29:50.409Z,101313.53
2022-11-27T17:32:56.067Z,101296.91
2022-11-27T17:36:00.118Z,101299.41
2022-11-27T17:39:02.853Z,101293.41
2022-11-27T17:42:10.017Z,101299.56
2022-11-27T17:45:15.609Z,101286.31
2022-11-27T17:48:18.166Z,101277.38
2022-11-27T17:51:22.849Z,101273.03
2022-11-27T17:54:25.386Z,101264.13
2022-11-27T17:57:27.970Z,101273.84
2022-11-27T18:00:30.600Z,101254.59
2022-11-27T18:03:34.362Z,101252.03
2022-11-27T18:06:38.296Z,101262.66
2022-11-27T18:09:41.142Z,101253.06
2022-11-27T18:12:43.933Z,101246.19
2022-11-27T18:15:47.213Z,101240.22
2022-11-27T18:18:49.783Z,101232.31
2022-11-27T18:21:53.620Z,101226.25
2022-11-27T18:24:56.152Z,101230.72
2022-11-27T18:27:58.874Z,101219.44
2022-11-27T18:31:05.801Z,101215.09
2022-11-27T18:34:08.372Z,101218.56
2022-11-27T18:37:12.605Z,101195.91
2022-11-27T18:40:15.253Z,101200.34
2022-11-27T18:43:19.159Z,101197.59
2022-11-27T18:46:22.607Z,101204.69
2022-11-27T18:49:26.032Z,101205.63
2022-11-27T18:52:29.905Z,101204.69
2022-11-27T18:55:34.576Z,101211.69
2022-11-27T18:58:37.803Z,101210.72
2022-11-27T19:01:42.594Z,101218.41
